Time;durP1;ratioP1;P1;durP2;ratioP2;P2;SDS_P1;SDS_P2;PMS_P1;PMS_P2;Temp;Humidity;BMP_temperature;BMP_pressure;BME280_temperature;BME280_humidity;BME280_pressure;Samples;Min_cycle;Max_cycle;Signal;HPM_P1;HPM_P2
2022/03/16 00:02:12;;;;;;;;;;;;;;;21.97;29.91;96190.59;10433504;28;1959;-41
2022/03/16 00:07:13;;;;;;;;;;;;;;;21.89;29.88;96199.09;10425895;28;1842;-40
2022/03/16 00:12:14;;;;;;;;;;;;;;;21.91;30.01;96199.59;10433838;28;1848;-39
2022/03/16 00:17:14;;;;;;;;;;;;;;;21.94;29.74;96209.63;10429264;28;1835;-39
2022/03/16 00:22:15;;;;;;;;;;;;;;;21.93;29.91;96208.03;10428637;28;1910;-41
2022/03/16 00:27:16;;;;;;;;;;;;;;;21.91;29.69;96204.88;10428753;28;1867;-39
2022/03/16 00:32:19;;;;;;;;;;;;;;;21.93;29.57;96207.28;10427248;28;1820;-41
2022/03/16 00:37:19;;;;;;;;;;;;;;;21.92;29.82;96213.59;10424671;28;1865;-42
2022/03/16 00:42:20;;;;;;;;;;;;;;;21.94;29.84;96222.84;10430241;28;1883;-42
2022/03/16 00:47:20;;;;;;;;;;;;;;;21.95;29.77;96213.06;10420760;28;1812;-40
2022/03/16 00:52:20;;;;;;;;;;;;;;;21.92;29.84;96219.69;10437377;28;1956;-41
2022/03/16 00:57:21;;;;;;;;;;;;;;;21.91;29.45;96218.09;10420468;28;1794;-40
2022/03/16 01:02:21;;;;;;;;;;;;;;;21.90;29.82;96203.31;10423459;28;1890;-41
2022/03/16 01:07:21;;;;;;;;;;;;;;;21.98;29.45;96207.25;10420088;28;1807;-41
2022/03/16 01:12:22;;;;;;;;;;;;;;;21.95;29.47;96203.28;10433825;28;2073;-40
2022/03/16 01:17:22;;;;;;;;;;;;;;;21.95;29.53;96202.53;10423623;28;1826;-48
2022/03/16 01:22:22;;;;;;;;;;;;;;;21.96;29.59;96196.97;10423767;28;1906;-42
2022/03/16 01:27:23;;;;;;;;;;;;;;;21.95;29.34;96200.66;10424155;28;2003;-39
2022/03/16 01:32:23;;;;;;;;;;;;;;;21.93;29.50;96188.81;10420541;28;1998;-41
2022/03/16 01:37:24;;;;;;;;;;;;;;;21.93;29.50;96192.22;10434769;28;1866;-41
2022/03/16 01:42:25;;;;;;;;;;;;;;;21.93;29.27;96194.06;10427018;28;2246;-41
2022/03/16 01:47:25;;;;;;;;;;;;;;;21.93;29.47;96194.84;10419890;28;1779;-41
2022/03/16 01:52:26;;;;;;;;;;;;;;;21.94;28.90;96193.81;10427638;28;2040;-40
2022/03/16 01:57:27;;;;;;;;;;;;;;;21.97;28.93;96195.88;10426016;28;1811;-40
2022/03/16 02:02:27;;;;;;;;;;;;;;;21.96;28.83;96202.25;10425310;28;2145;-41
2022/03/16 02:07:28;;;;;;;;;;;;;;;21.94;28.88;96200.91;10422784;28;1931;-39
2022/03/16 02:12:28;;;;;;;;;;;;;;;21.96;28.87;96196.97;10435384;28;1882;-40
2022/03/16 02:17:28;;;;;;;;;;;;;;;21.95;28.72;96198.00;10429701;28;1913;-40
2022/03/16 02:22:29;;;;;;;;;;;;;;;21.94;28.90;96198.28;10423782;28;1996;-41
2022/03/16 02:27:29;;;;;;;;;;;;;;;21.97;28.98;96198.53;10412471;28;1816;-43
2022/03/16 02:32:30;;;;;;;;;;;;;;;21.95;28.65;96203.28;10433795;28;1840;-39
2022/03/16 02:37:30;;;;;;;;;;;;;;;21.95;28.69;96213.06;10433255;28;1833;-39
2022/03/16 02:42:30;;;;;;;;;;;;;;;21.95;28.63;96213.84;10440402;28;1955;-41
2022/03/16 02:47:31;;;;;;;;;;;;;;;21.94;28.46;96222.03;10428201;28;1975;-38
2022/03/16 02:52:31;;;;;;;;;;;;;;;21.94;28.59;96225.47;10445527;22;3538;-58
2022/03/16 02:57:32;;;;;;;;;;;;;;;21.93;28.67;96237.06;10444554;28;1838;-58
2022/03/16 03:02:32;;;;;;;;;;;;;;;21.97;28.69;96238.13;10439332;28;2051;-60
2022/03/16 03:07:33;;;;;;;;;;;;;;;22.02;28.61;96239.94;10445500;28;1893;-62
2022/03/16 03:12:34;;;;;;;;;;;;;;;21.97;28.52;96243.41;10434271;28;1983;-60
2022/03/16 03:17:35;;;;;;;;;;;;;;;21.96;28.46;96241.84;10438101;28;1905;-58
2022/03/16 03:22:35;;;;;;;;;;;;;;;21.96;28.53;96249.75;10437031;28;2075;-58
2022/03/16 03:27:35;;;;;;;;;;;;;;;21.95;28.59;96250.03;10439120;28;1869;-60
2022/03/16 03:32:36;;;;;;;;;;;;;;;21.98;28.40;96250.28;10434960;28;1920;-60
2022/03/16 03:37:36;;;;;;;;;;;;;;;21.96;28.36;96262.94;10433612;28;1788;-60
2022/03/16 03:42:37;;;;;;;;;;;;;;;22.02;28.35;96263.72;10436541;28;1993;-60
2022/03/16 03:47:37;;;;;;;;;;;;;;;21.98;28.09;96258.19;10433812;28;2044;-60
2022/03/16 03:52:38;;;;;;;;;;;;;;;21.97;28.44;96264.50;10437954;28;2331;-60
2022/03/16 03:57:38;;;;;;;;;;;;;;;21.96;28.32;96268.22;10437571;28;1987;-61
2022/03/16 04:02:47;;;;;;;;;;;;;;;21.96;28.38;96272.72;10437943;28;2006;-61
2022/03/16 04:07:50;;;;;;;;;;;;;;;21.97;28.10;96280.34;10434550;28;2613;-61
2022/03/16 04:12:50;;;;;;;;;;;;;;;22.02;27.85;96298.81;10435326;28;1843;-60
2022/03/16 04:17:52;;;;;;;;;;;;;;;22.00;28.27;96298.31;10437358;28;1823;-61
2022/03/16 04:22:53;;;;;;;;;;;;;;;21.96;28.14;96305.19;10432769;28;2237;-60
2022/03/16 04:27:53;;;;;;;;;;;;;;;22.00;28.20;96306.22;10438482;28;1847;-60
2022/03/16 04:32:53;;;;;;;;;;;;;;;21.98;28.28;96304.91;10430409;28;2162;-61
2022/03/16 04:37:55;;;;;;;;;;;;;;;21.99;28.01;96315.19;10436649;28;1874;-61
2022/03/16 04:42:56;;;;;;;;;;;;;;;22.00;28.10;96311.50;10439006;28;1910;-61
2022/03/16 04:47:57;;;;;;;;;;;;;;;21.98;28.28;96307.53;10445566;28;1881;-61
2022/03/16 04:52:58;;;;;;;;;;;;;;;21.98;28.07;96315.47;10432552;28;1783;-60
2022/03/16 04:58:00;;;;;;;;;;;;;;;21.99;28.06;96319.69;10436432;28;1916;-61
2022/03/16 05:03:01;;;;;;;;;;;;;;;21.98;27.88;96340.03;10423949;28;1990;-61
2022/03/16 05:08:01;;;;;;;;;;;;;;;22.02;28.02;96353.47;10419846;28;2007;-60
2022/03/16 05:13:02;;;;;;;;;;;;;;;22.00;27.93;96369.59;10430834;28;1872;-58
2022/03/16 05:18:02;;;;;;;;;;;;;;;21.99;27.82;96370.63;10434674;28;1831;-61
2022/03/16 05:23:03;;;;;;;;;;;;;;;22.04;27.65;96381.19;10431921;28;1995;-58
2022/03/16 05:28:04;;;;;;;;;;;;;;;22.00;27.53;96374.88;10430216;28;1900;-58
2022/03/16 05:33:06;;;;;;;;;;;;;;;22.00;27.53;96385.41;10430261;28;1877;-59
2022/03/16 05:38:08;;;;;;;;;;;;;;;22.02;27.51;96393.06;10433145;28;1988;-60
2022/03/16 05:43:09;;;;;;;;;;;;;;;22.03;27.42;96400.72;10438869;28;1958;-60
2022/03/16 05:48:09;;;;;;;;;;;;;;;22.02;27.54;96404.44;10415709;28;1991;-57
2022/03/16 05:53:09;;;;;;;;;;;;;;;22.02;27.47;96417.63;10426294;28;2074;-59
2022/03/16 05:58:10;;;;;;;;;;;;;;;21.99;27.70;96415.50;10435360;28;1924;-59
2022/03/16 06:03:11;;;;;;;;;;;;;;;21.97;27.54;96417.63;10433378;28;1910;-59
2022/03/16 06:08:11;;;;;;;;;;;;;;;22.02;27.69;96420.25;10429532;28;1830;-59
2022/03/16 06:13:12;;;;;;;;;;;;;;;22.01;27.46;96418.66;10433148;28;1838;-61
2022/03/16 06:18:12;;;;;;;;;;;;;;;21.99;27.30;96420.78;10423705;28;1814;-58
2022/03/16 06:23:13;;;;;;;;;;;;;;;21.98;27.51;96424.50;10428519;28;1991;-59
2022/03/16 06:28:13;;;;;;;;;;;;;;;21.98;27.28;96431.63;10433683;28;1862;-59
2022/03/16 06:33:14;;;;;;;;;;;;;;;21.99;27.39;96436.63;10436456;28;2019;-58
2022/03/16 06:38:14;;;;;;;;;;;;;;;21.99;27.50;96441.13;10430409;28;1862;-60
2022/03/16 06:43:14;;;;;;;;;;;;;;;21.97;27.47;96444.00;10430750;28;1952;-59
2022/03/16 06:48:15;;;;;;;;;;;;;;;21.98;27.44;96453.53;10427364;28;2171;-59
2022/03/16 06:53:15;;;;;;;;;;;;;;;21.99;27.37;96456.97;10426455;28;2006;-60
2022/03/16 06:58:16;;;;;;;;;;;;;;;21.99;27.02;96467.53;10445272;28;1885;-59
2022/03/16 07:03:16;;;;;;;;;;;;;;;22.01;27.34;96462.78;10431939;28;1906;-58
2022/03/16 07:08:16;;;;;;;;;;;;;;;22.00;27.10;96464.63;10405334;28;2100;-58
2022/03/16 07:13:18;;;;;;;;;;;;;;;22.01;27.20;96468.06;10422558;28;1849;-60
2022/03/16 07:18:20;;;;;;;;;;;;;;;22.00;27.18;96484.94;10427180;28;1951;-59
2022/03/16 07:23:20;;;;;;;;;;;;;;;21.99;27.11;96480.72;10439172;28;1910;-60
2022/03/16 07:28:20;;;;;;;;;;;;;;;21.99;27.17;96478.09;10432955;28;2077;-60
2022/03/16 07:33:21;;;;;;;;;;;;;;;22.03;27.23;96479.16;10427436;28;2281;-60
2022/03/16 07:38:22;;;;;;;;;;;;;;;21.97;26.90;96480.97;10411140;28;1968;-57
2022/03/16 07:43:22;;;;;;;;;;;;;;;21.98;27.36;96485.22;10431595;28;1930;-60
2022/03/16 07:48:23;;;;;;;;;;;;;;;22.04;27.66;96486.78;10431495;28;2170;-58
2022/03/16 07:53:23;;;;;;;;;;;;;;;22.10;27.60;96487.56;10434538;28;1955;-60
2022/03/16 07:58:23;;;;;;;;;;;;;;;22.06;27.92;96499.72;10425786;28;2121;-59
2022/03/16 08:03:24;;;;;;;;;;;;;;;22.09;28.20;96491.28;10430206;28;2045;-60
2022/03/16 08:08:24;;;;;;;;;;;;;;;22.05;27.90;96493.63;10429006;28;1861;-60
2022/03/16 08:13:27;;;;;;;;;;;;;;;22.09;27.62;96489.41;10441094;28;2197;-60
2022/03/16 08:18:29;;;;;;;;;;;;;;;22.11;28.06;96494.44;10434080;28;2014;-58
2022/03/16 08:23:30;;;;;;;;;;;;;;;22.15;27.81;96492.88;10422599;28;1910;-60
2022/03/16 08:28:31;;;;;;;;;;;;;;;22.17;27.47;96494.19;10407868;28;1714;-60
2022/03/16 08:33:31;;;;;;;;;;;;;;;22.13;27.52;96495.78;10429911;28;1848;-60
2022/03/16 08:38:32;;;;;;;;;;;;;;;22.16;27.57;96500.50;10435062;28;1858;-60
2022/03/16 08:43:33;;;;;;;;;;;;;;;22.18;27.81;96502.88;10433069;28;1977;-60
2022/03/16 08:48:33;;;;;;;;;;;;;;;22.19;28.15;96499.19;10435233;28;1801;-58
2022/03/16 08:53:34;;;;;;;;;;;;;;;22.17;27.95;96503.94;10478897;22;1816;-73
2022/03/16 08:58:35;;;;;;;;;;;;;;;22.20;27.40;96506.03;10516068;28;1833;-73
2022/03/16 09:03:35;;;;;;;;;;;;;;;22.18;27.52;96521.38;10511828;28;1922;-74
2022/03/16 09:08:35;;;;;;;;;;;;;;;22.18;27.54;96521.38;10513527;28;1897;-74
2022/03/16 09:13:37;;;;;;;;;;;;;;;22.20;27.26;96516.59;10512140;28;1780;-75
2022/03/16 09:18:37;;;;;;;;;;;;;;;22.17;27.25;96515.31;10498081;28;1784;-72
2022/03/16 09:23:38;;;;;;;;;;;;;;;22.18;26.97;96516.09;10512710;28;2027;-72
2022/03/16 09:28:38;;;;;;;;;;;;;;;22.18;26.89;96505.53;10516685;28;1875;-74
2022/03/16 09:33:40;;;;;;;;;;;;;;;22.16;27.16;96511.06;10500280;28;1854;-74
2022/03/16 09:38:40;;;;;;;;;;;;;;;22.19;27.33;96510.56;10498881;28;1838;-74
2022/03/16 09:43:42;;;;;;;;;;;;;;;22.14;27.10;96505.25;10506964;28;1909;-74
2022/03/16 09:48:43;;;;;;;;;;;;;;;22.15;27.06;96504.22;10505547;28;2242;-76
2022/03/16 09:53:44;;;;;;;;;;;;;;;22.13;27.22;96511.63;10517379;28;1933;-72
2022/03/16 09:58:47;;;;;;;;;;;;;;;22.19;27.80;96515.03;10518517;28;1997;-71
2022/03/16 10:03:48;;;;;;;;;;;;;;;22.20;27.94;96511.31;10491640;28;1965;-72
2022/03/16 10:13:13;;;;;;;;;;;;;;;22.21;28.02;96492.59;10518375;28;2239;-73
2022/03/16 10:14:14;;;;;;;;;;;;;;;22.21;27.94;96492.59;10502622;28;1743;-72
2022/03/16 10:19:15;;;;;;;;;;;;;;;22.25;27.89;96496.28;10506707;28;2006;-74
2022/03/16 10:24:18;;;;;;;;;;;;;;;22.26;27.99;96494.41;10520218;28;2137;-73
2022/03/16 10:29:21;;;;;;;;;;;;;;;22.24;27.85;96491.25;10501679;28;2125;-72
2022/03/16 10:34:25;;;;;;;;;;;;;;;22.26;27.68;96489.94;10503833;28;1568;-73
2022/03/16 10:39:36;;;;;;;;;;;;;;;22.26;27.19;96491.78;10495019;28;1913;-74
2022/03/16 10:50:04;;;;;;;;;;;;;;;22.25;26.92;96493.66;10505176;28;1854;-74
2022/03/16 10:55:05;;;;;;;;;;;;;;;22.29;27.15;96489.41;10506996;28;1804;-73
2022/03/16 11:00:05;;;;;;;;;;;;;;;22.28;27.06;96473.81;10521681;28;1867;-72
2022/03/16 11:05:06;;;;;;;;;;;;;;;22.35;27.75;96471.69;10512549;28;2112;-71
2022/03/16 11:10:07;;;;;;;;;;;;;;;22.34;27.89;96473.53;10501594;28;2399;-70
2022/03/16 11:15:08;;;;;;;;;;;;;;;22.34;28.11;96470.91;10518169;28;1866;-71
2022/03/16 11:20:09;;;;;;;;;;;;;;;22.36;28.04;96468.00;10496722;28;1795;-71
2022/03/16 11:25:11;;;;;;;;;;;;;;;22.41;28.12;96460.84;10509119;28;2254;-73
2022/03/16 11:30:12;;;;;;;;;;;;;;;22.42;28.45;96453.72;10511323;28;1878;-73
2022/03/16 11:35:16;;;;;;;;;;;;;;;22.39;28.95;96446.34;10511212;28;1826;-72
2022/03/16 11:40:20;;;;;;;;;;;;;;;22.42;28.54;96436.00;10514274;28;1867;-72
2022/03/16 11:45:37;;;;;;;;;;;;;;;22.35;28.75;96438.16;10512729;28;1959;-73
2022/03/16 11:50:37;;;;;;;;;;;;;;;22.33;28.71;96435.00;10516224;28;1752;-72
2022/03/16 11:55:38;;;;;;;;;;;;;;;22.31;28.83;96434.47;10487034;28;1875;-71
2022/03/16 12:00:38;;;;;;;;;;;;;;;22.26;29.15;96431.84;10496298;28;1870;-71
2022/03/16 12:05:55;;;;;;;;;;;;;;;22.21;29.70;96431.06;10511279;28;1971;-71
2022/03/16 12:12:51;;;;;;;;;;;;;;;22.25;29.71;96417.06;10487681;28;1890;-72
2022/03/16 12:16:17;;;;;;;;;;;;;;;22.22;29.54;96414.94;10513975;28;2071;-71
2022/03/16 12:21:24;;;;;;;;;;;;;;;22.25;29.65;96409.13;10502201;28;1894;-71
2022/03/16 12:26:26;;;;;;;;;;;;;;;22.29;29.60;96410.19;10514146;22;2462;-50
2022/03/16 12:31:26;;;;;;;;;;;;;;;22.28;29.82;96413.06;10475232;28;1669;-50
2022/03/16 12:36:27;;;;;;;;;;;;;;;22.25;29.58;96403.84;10441239;28;1790;-51
2022/03/16 12:46:56;;;;;;;;;;;;;;;22.33;29.94;96390.09;10437464;28;2203;-51
2022/03/16 12:52:00;;;;;;;;;;;;;;;22.35;30.37;96380.06;10451206;28;1864;-51
2022/03/16 12:57:03;;;;;;;;;;;;;;;22.35;30.15;96381.91;10429656;28;1841;-51
2022/03/16 13:02:07;;;;;;;;;;;;;;;22.37;29.92;96385.84;10429843;28;1866;-48
2022/03/16 13:07:07;;;;;;;;;;;;;;;22.39;29.85;96378.44;10430238;28;2112;-53
2022/03/16 13:12:11;;;;;;;;;;;;;;;22.43;29.83;96373.41;10433252;28;2062;-53
2022/03/16 13:17:13;;;;;;;;;;;;;;;22.38;29.94;96370.81;10427762;28;1941;-51
2022/03/16 13:22:14;;;;;;;;;;;;;;;22.40;29.92;96366.81;10435161;28;2114;-53
2022/03/16 13:27:15;;;;;;;;;;;;;;;22.39;29.85;96362.59;10428016;28;1889;-54
2022/03/16 13:32:16;;;;;;;;;;;;;;;22.42;29.78;96361.28;10437077;28;2306;-51
2022/03/16 13:37:23;;;;;;;;;;;;;;;22.45;29.55;96361.53;10429527;28;2119;-51
2022/03/16 13:42:27;;;;;;;;;;;;;;;22.50;29.70;96342.97;10429361;28;2230;-50
2022/03/16 13:47:28;;;;;;;;;;;;;;;22.51;30.10;96333.22;10434174;28;1849;-50
2022/03/16 13:52:34;;;;;;;;;;;;;;;22.50;29.68;96323.72;10434156;28;1826;-52
2022/03/16 13:57:36;;;;;;;;;;;;;;;22.56;30.06;96339.28;10432253;28;1889;-52
2022/03/16 14:02:36;;;;;;;;;;;;;;;22.56;30.09;96330.56;10439120;28;1967;-49
2022/03/16 14:07:41;;;;;;;;;;;;;;;22.55;29.86;96331.59;10429316;28;1881;-52
2022/03/16 14:12:42;;;;;;;;;;;;;;;22.50;29.45;96334.28;10417017;28;1799;-50
2022/03/16 14:17:48;;;;;;;;;;;;;;;22.43;29.40;96342.50;10439652;28;2142;-50
2022/03/16 14:22:49;;;;;;;;;;;;;;;22.47;29.13;96338.25;10435085;28;1969;-52
2022/03/16 14:27:50;;;;;;;;;;;;;;;22.43;29.31;96331.16;10452043;28;1965;-49
2022/03/16 14:32:51;;;;;;;;;;;;;;;22.42;29.45;96319.78;10450037;28;1865;-53
2022/03/16 14:37:58;;;;;;;;;;;;;;;22.38;29.36;96313.47;10451370;28;1858;-52
2022/03/16 14:42:58;;;;;;;;;;;;;;;22.41;29.28;96320.06;10467168;28;1906;-51
2022/03/16 14:47:59;;;;;;;;;;;;;;;22.43;29.38;96318.72;10454750;28;2260;-49
2022/03/16 14:53:04;;;;;;;;;;;;;;;22.38;29.68;96313.47;10451851;28;1911;-51
2022/03/16 14:58:08;;;;;;;;;;;;;;;22.33;29.72;96302.94;10442046;22;3618;-61
2022/03/16 15:03:08;;;;;;;;;;;;;;;22.29;30.04;96287.88;10402547;28;2293;-62
2022/03/16 15:08:09;;;;;;;;;;;;;;;22.24;29.52;96293.19;10386214;28;1875;-62
2022/03/16 15:13:12;;;;;;;;;;;;;;;22.18;29.80;96294.25;10356452;28;1895;-58
2022/03/16 15:18:13;;;;;;;;;;;;;;;22.21;29.87;96297.19;10362366;28;1864;-52
2022/03/16 15:23:13;;;;;;;;;;;;;;;22.19;29.53;96299.31;10350109;28;1965;-56
2022/03/16 15:28:13;;;;;;;;;;;;;;;22.18;29.80;96305.63;10348605;28;1934;-55
2022/03/16 15:33:14;;;;;;;;;;;;;;;22.20;29.70;96284.22;10346804;28;2369;-57
2022/03/16 15:38:14;;;;;;;;;;;;;;;22.21;29.68;96270.78;10351432;28;1899;-55
2022/03/16 15:43:15;;;;;;;;;;;;;;;22.20;29.45;96263.09;10336785;28;2008;-58
2022/03/16 15:48:16;;;;;;;;;;;;;;;22.21;29.43;96285.81;10335349;28;2290;-56
2022/03/16 15:53:17;;;;;;;;;;;;;;;22.19;29.43;96282.66;10340588;28;1949;-56
2022/03/16 15:58:17;;;;;;;;;;;;;;;22.14;29.15;96283.47;10359003;28;1842;-56
2022/03/16 16:03:19;;;;;;;;;;;;;;;22.15;29.03;96287.69;10350331;28;1902;-56
2022/03/16 16:08:20;;;;;;;;;;;;;;;22.14;29.11;96275.53;10349777;28;1919;-56
2022/03/16 16:13:22;;;;;;;;;;;;;;;22.11;29.00;96284.03;10350329;28;1871;-56
2022/03/16 16:18:23;;;;;;;;;;;;;;;22.12;29.05;96288.22;10344317;28;1862;-56
2022/03/16 16:23:24;;;;;;;;;;;;;;;22.14;28.93;96298.50;10348891;28;1924;-56
2022/03/16 16:28:25;;;;;;;;;;;;;;;22.13;28.91;96281.09;10336561;28;2069;-52
2022/03/16 16:33:29;;;;;;;;;;;;;;;22.11;28.71;96280.59;10341976;28;1900;-54
2022/03/16 16:38:30;;;;;;;;;;;;;;;22.11;28.85;96264.75;10351114;28;2299;-56
2022/03/16 16:43:30;;;;;;;;;;;;;;;22.14;28.86;96272.91;10351438;28;2177;-55
2022/03/16 16:48:30;;;;;;;;;;;;;;;22.13;28.70;96281.91;10345310;28;1924;-55
2022/03/16 16:53:32;;;;;;;;;;;;;;;22.13;28.66;96263.41;10339652;28;2234;-55
2022/03/16 16:58:34;;;;;;;;;;;;;;;22.11;28.55;96243.63;10346105;28;1934;-54
2022/03/16 17:03:34;;;;;;;;;;;;;;;22.15;28.54;96234.09;10339515;28;1911;-56
2022/03/16 17:08:35;;;;;;;;;;;;;;;22.15;28.35;96265.78;10352802;28;1855;-55
2022/03/16 17:13:36;;;;;;;;;;;;;;;22.17;28.41;96284.78;10341646;28;1828;-55
2022/03/16 17:18:37;;;;;;;;;;;;;;;22.16;28.35;96297.19;10344121;28;1947;-52
2022/03/16 17:23:38;;;;;;;;;;;;;;;22.15;28.17;96292.97;10345130;28;1906;-54
2022/03/16 17:28:38;;;;;;;;;;;;;;;22.17;28.20;96301.41;10355065;28;1889;-50
2022/03/16 17:33:39;;;;;;;;;;;;;;;22.20;28.34;96289.50;10350231;28;2094;-52
2022/03/16 17:38:40;;;;;;;;;;;;;;;22.19;28.21;96282.66;10354198;28;1794;-53
2022/03/16 17:49:04;;;;;;;;;;;;;;;22.22;28.06;96282.91;10354611;28;1829;-56
2022/03/16 17:54:06;;;;;;;;;;;;;;;22.23;27.99;96276.56;10353821;28;1915;-54
2022/03/16 17:59:08;;;;;;;;;;;;;;;22.22;27.99;96272.34;10354562;28;2176;-55
2022/03/16 18:04:11;;;;;;;;;;;;;;;22.22;28.04;96272.34;10354622;28;2195;-53
2022/03/16 18:09:12;;;;;;;;;;;;;;;22.22;28.29;96277.63;10349785;28;1854;-54
2022/03/16 18:14:14;;;;;;;;;;;;;;;22.23;28.00;96283.69;10349899;28;1850;-54
2022/03/16 18:19:15;;;;;;;;;;;;;;;22.23;28.31;96284.50;10355853;28;1823;-54
2022/03/16 18:24:16;;;;;;;;;;;;;;;22.26;28.40;96283.94;10363065;28;1906;-55
2022/03/16 18:29:17;;;;;;;;;;;;;;;22.24;28.62;96287.91;10342882;28;1838;-57
2022/03/16 18:34:17;;;;;;;;;;;;;;;22.24;28.79;96301.09;10337767;28;2127;-56
2022/03/16 18:39:18;;;;;;;;;;;;;;;22.22;28.62;96304.03;10340997;28;1981;-56
2022/03/16 18:44:18;;;;;;;;;;;;;;;22.22;28.59;96303.22;10353025;28;1968;-57
2022/03/16 18:49:20;;;;;;;;;;;;;;;22.20;28.71;96298.22;10343093;28;1835;-56
2022/03/16 18:54:21;;;;;;;;;;;;;;;22.17;28.69;96309.34;10351228;28;2240;-56
2022/03/16 18:59:21;;;;;;;;;;;;;;;22.16;28.50;96304.31;10344775;28;1880;-55
2022/03/16 19:04:23;;;;;;;;;;;;;;;22.13;28.72;96295.09;10341257;28;1906;-57
2022/03/16 19:09:27;;;;;;;;;;;;;;;22.11;28.68;96296.44;10332421;28;1924;-57
2022/03/16 19:14:28;;;;;;;;;;;;;;;22.13;29.00;96304.88;10338626;28;1870;-58
2022/03/16 19:19:28;;;;;;;;;;;;;;;22.10;28.65;96295.63;10351751;28;2227;-56
2022/03/16 19:24:28;;;;;;;;;;;;;;;22.10;28.66;96300.09;10344088;28;2009;-56
2022/03/16 19:29:29;;;;;;;;;;;;;;;22.09;28.75;96304.59;10346662;28;1874;-56
2022/03/16 19:34:29;;;;;;;;;;;;;;;22.10;28.87;96300.09;10349175;28;1926;-57
2022/03/16 19:39:30;;;;;;;;;;;;;;;22.10;28.81;96306.19;10339936;28;1958;-57
2022/03/16 19:44:30;;;;;;;;;;;;;;;22.06;28.74;96302.50;10340226;28;2058;-56
2022/03/16 19:49:32;;;;;;;;;;;;;;;22.06;28.80;96299.88;10342217;28;1984;-58
2022/03/16 19:54:32;;;;;;;;;;;;;;;22.03;28.68;96291.72;10346375;28;1948;-59
2022/03/16 19:59:32;;;;;;;;;;;;;;;22.02;28.64;96282.97;10341286;28;1959;-58
2022/03/16 20:04:34;;;;;;;;;;;;;;;22.01;28.54;96278.00;10333929;28;2177;-59
2022/03/16 20:09:34;;;;;;;;;;;;;;;21.98;28.58;96286.44;10333614;28;1878;-59
2022/03/16 20:14:34;;;;;;;;;;;;;;;21.97;28.87;96287.50;10341227;28;1902;-61
2022/03/16 20:19:35;;;;;;;;;;;;;;;21.94;28.58;96291.47;10339828;28;2232;-59
2022/03/16 20:24:35;;;;;;;;;;;;;;;21.93;28.66;96289.88;10346410;28;1937;-59
2022/03/16 20:29:38;;;;;;;;;;;;;;;21.91;28.79;96278.78;10352733;28;1807;-59
2022/03/16 20:34:38;;;;;;;;;;;;;;;21.91;28.55;96281.44;10341070;28;1952;-58
2022/03/16 20:39:40;;;;;;;;;;;;;;;21.93;28.42;96281.94;10343037;28;2136;-58
2022/03/16 20:44:41;;;;;;;;;;;;;;;21.93;28.46;96284.59;10346241;28;1907;-60
2022/03/16 20:49:41;;;;;;;;;;;;;;;21.91;28.48;96280.66;10353492;28;2065;-57
2022/03/16 20:54:42;;;;;;;;;;;;;;;21.92;28.22;96283.03;10363198;28;1775;-59
2022/03/16 21:05:02;;;;;;;;;;;;;;;21.94;28.23;96275.63;10388165;22;2286;-45
2022/03/16 21:10:03;;;;;;;;;;;;;;;21.93;28.01;96271.38;10395225;28;1842;-42
2022/03/16 21:15:07;;;;;;;;;;;;;;;21.96;28.09;96273.50;10396568;28;1803;-44
2022/03/16 21:20:08;;;;;;;;;;;;;;;21.97;28.07;96255.81;10398527;28;1844;-45
2022/03/16 21:25:09;;;;;;;;;;;;;;;21.96;28.07;96249.75;10377476;28;1910;-47
2022/03/16 21:30:10;;;;;;;;;;;;;;;22.00;27.98;96248.16;10383668;28;1827;-41
2022/03/16 21:35:12;;;;;;;;;;;;;;;21.97;28.00;96248.69;10379699;28;2031;-44
2022/03/16 21:45:41;;;;;;;;;;;;;;;22.01;28.07;96246.31;10398280;28;1977;-42
2022/03/16 21:56:02;;;;;;;;;;;;;;;22.00;27.78;96253.44;10398258;28;1870;-44
2022/03/16 22:01:05;;;;;;;;;;;;;;;22.03;27.38;96244.19;10380899;28;2052;-44
2022/03/16 22:06:09;;;;;;;;;;;;;;;22.07;27.68;96255.78;10376265;28;1969;-44
2022/03/16 22:11:09;;;;;;;;;;;;;;;22.07;27.68;96250.50;10363470;28;2196;-44
2022/03/16 22:16:11;;;;;;;;;;;;;;;22.08;27.42;96244.94;10390112;28;1838;-48
2022/03/16 22:21:24;;;;;;;;;;;;;;;22.08;27.43;96231.75;10397519;28;1879;-48
2022/03/16 22:26:26;;;;;;;;;;;;;;;22.07;27.16;96227.50;10380424;28;1952;-43
2022/03/16 22:31:27;;;;;;;;;;;;;;;22.09;27.41;96224.63;10381336;28;1756;-44
2022/03/16 22:36:29;;;;;;;;;;;;;;;22.08;27.09;96226.47;10393477;28;1882;-46
2022/03/16 22:41:29;;;;;;;;;;;;;;;22.06;26.75;96214.59;10359908;28;1914;-47
2022/03/16 22:46:29;;;;;;;;;;;;;;;22.04;26.83;96206.16;10380338;28;1967;-48
2022/03/16 22:51:32;;;;;;;;;;;;;;;22.05;26.31;96208.50;10385008;28;1859;-42
2022/03/16 22:56:32;;;;;;;;;;;;;;;22.06;26.52;96204.81;10402228;28;1839;-45
2022/03/16 23:01:32;;;;;;;;;;;;;;;22.06;26.92;96196.91;10395652;28;1943;-48
2022/03/16 23:06:33;;;;;;;;;;;;;;;22.04;26.55;96200.88;10403324;28;1914;-47
2022/03/16 23:11:33;;;;;;;;;;;;;;;22.01;26.47;96196.91;10403913;28;1774;-42
2022/03/16 23:16:34;;;;;;;;;;;;;;;22.01;26.33;96196.91;10400240;28;1867;-45
2022/03/16 23:21:35;;;;;;;;;;;;;;;22.00;26.39;96200.63;10401350;28;2172;-40
2022/03/16 23:26:35;;;;;;;;;;;;;;;21.98;26.13;96201.97;10406052;28;1972;-47
2022/03/16 23:31:35;;;;;;;;;;;;;;;21.98;26.37;96205.41;10398907;28;1806;-46
2022/03/16 23:36:37;;;;;;;;;;;;;;;21.99;26.50;96214.13;10404224;28;1784;-41
2022/03/16 23:41:37;;;;;;;;;;;;;;;21.99;26.57;96214.88;10386587;28;2171;-46
2022/03/16 23:46:37;;;;;;;;;;;;;;;21.99;26.14;96225.44;10385339;28;1906;-42
2022/03/16 23:51:38;;;;;;;;;;;;;;;21.98;26.76;96229.16;10389276;28;1865;-44
2022/03/16 23:56:39;;;;;;;;;;;;;;;22.00;26.23;96231.50;10380637;28;1819;-43
